Dodson, TX (79230)

9:27 PM CDT on July 30, 2014 (GMT -0500)
Bobcat Wireless (KTXCHILD1) Elev 1896 ft | 34.43 °N, 100.21 °W | Change Station

Current weather conditions updated 22 minutes ago

Mostly Cloudy
Mostly Cloudy
74.2 °F
Feels Like 75 °F
N
4.0
Wind Variable Wind from NNE
Gusts 16.0 mph

Tomorrow is forecast to be nearly the same temperature as today.

Today
High -- | Low -- °F
--% Chance of Precip.
Yesterday
High -- | Low -- °F
Precip. -- in
6:48 AM 8:44 PM
Waxing Crescent, 15% visible
Pressure 30.05 in
Visibility 10.0 miles
Clouds Mostly Cloudy 2400 ft
Heat Index 75 °F
Dew Point 66 °F
Humidity 77%
Rainfall -999.00 in
Snow Depth Not available.
UV 0 out of 12
Pollen 2.00 out of 12
Air Quality Not available.
Flu Activity Not available.
SPECI KCDS 310209Z AUTO 03016G23KT 10SM BKN024 23/18 A3005 RMK AO2 T02330183

More Conditions Fewer Conditions

Pressure 30.05 in
Visibility 10.0 miles
Clouds Mostly Cloudy 2400 ft
Heat Index 75 °F
Dew Point 66 °F
Humidity 77%
Rainfall -999.00 in
Snow Depth Not available.
UV 0 out of 12
Pollen 2.00 out of 12
Air Quality Not available.
Flu Activity Not available.
SPECI KCDS 310209Z AUTO 03016G23KT 10SM BKN024 23/18 A3005 RMK AO2 T02330183

More Conditions Fewer Conditions

10-Day Weather Forecast

Almanac

Astronomy

Jul. 30, 2014 Rise Set
Actual Time 6:48 AM CDT 8:44 PM CDT
Civil Twilight 6:20 AM CDT 9:11 PM CDT
Nautical Twilight 5:47 AM CDT 9:45 PM CDT
Astronomical Twilight 5:11 AM CDT 10:21 PM CDT
Moon 10:11 AM CDT (7/30) 10:39 PM CDT (7/30)
Length of Visible Light 14h 50m
Length of Day
13h 55m
Tomorrow will be 1m 35s shorter.
Waxing Crescent, 15% of the Moon is Illuminated
Today
Waxing Crescent
Aug 3
First Quarter
Aug 10
Full
Aug 17
Last Quarter
Aug 25
New

Today's Extremes

State Highs State Lows

Community

WunderPhotos

Upload Photos

1,739,272 photos uploaded!

Nearby

Snow Depth

Station Depth Elevation
No new snow has been reported.

Earthquake Activity

City Distance Mag. Time & Date
Helena, Oklahoma 166 miles 3.3 11:56 PM CDT
2014-07-24
Minimum magnitude displayed is 2.5.

Coastal Water Temperatures

Place Temperature
No Stations Reporting

Nearby Weather Stations

Station Location Temp. Heat Index Dew Point Humidity Wind Precip. Elev Updated Type
WT_Meso 2NNE Childress, Childress, TX 79 °F 81 °F 66 °F 66% NNW  at  14 mph 0.00 in / hr 1942 ft 8:25 PM CDT MADIS
Bobcat Wireless, Childress, TX 74.2 °F 75 °F 66 °F 77% NNE  at  4.0 mph 0.00 in / hr 1896 ft 9:05 PM CDT Normal
Corinth, Eldorado, OK 72.1 °F 72 °F 67 °F 83% NNE  at  25.9 mph 0.00 in / hr 1476 ft 9:27 PM CDT Rapid Fire
South of old Kirkland gym, Kirkland, TX 73.9 °F 77 °F 53 °F 48% SE  at  5.4 mph 0.00 in / hr 1755 ft 9:26 PM CDT Rapid Fire

Show More Stations Show Fewer Stations